sensor_id;sensor_type;location;lat;lon;timestamp;P1;durP1;ratioP1;P2;durP2;ratioP2
57889;SDS011;43707;50.184;18.966;2023-09-07T00:01:49;0.30;;;0.30;;
57889;SDS011;43707;50.184;18.966;2023-09-07T00:04:18;0.50;;;0.40;;
57889;SDS011;43707;50.184;18.966;2023-09-07T00:06:50;0.40;;;0.40;;
57889;SDS011;43707;50.184;18.966;2023-09-07T00:09:16;0.60;;;0.40;;
57889;SDS011;43707;50.184;18.966;2023-09-07T00:11:43;0.60;;;0.60;;
57889;SDS011;43707;50.184;18.966;2023-09-07T00:14:10;0.30;;;0.30;;
57889;SDS011;43707;50.184;18.966;2023-09-07T00:16:35;0.50;;;0.40;;
57889;SDS011;43707;50.184;18.966;2023-09-07T00:19:03;0.90;;;0.50;;
57889;SDS011;43707;50.184;18.966;2023-09-07T00:21:32;0.70;;;0.60;;
57889;SDS011;43707;50.184;18.966;2023-09-07T00:23:57;0.40;;;0.40;;
57889;SDS011;43707;50.184;18.966;2023-09-07T00:26:23;0.40;;;0.40;;
57889;SDS011;43707;50.184;18.966;2023-09-07T00:28:48;0.40;;;0.40;;
57889;SDS011;43707;50.184;18.966;2023-09-07T00:31:13;1.20;;;0.50;;
57889;SDS011;43707;50.184;18.966;2023-09-07T00:33:39;0.60;;;0.40;;
57889;SDS011;43707;50.184;18.966;2023-09-07T00:36:04;0.50;;;0.50;;
57889;SDS011;43707;50.184;18.966;2023-09-07T00:38:30;0.40;;;0.40;;
57889;SDS011;43707;50.184;18.966;2023-09-07T00:40:55;0.40;;;0.40;;
57889;SDS011;43707;50.184;18.966;2023-09-07T00:43:21;0.60;;;0.60;;
57889;SDS011;43707;50.184;18.966;2023-09-07T00:45:46;0.60;;;0.40;;
57889;SDS011;43707;50.184;18.966;2023-09-07T00:48:12;0.40;;;0.40;;
57889;SDS011;43707;50.184;18.966;2023-09-07T00:50:38;0.40;;;0.40;;
57889;SDS011;43707;50.184;18.966;2023-09-07T00:53:04;1.70;;;0.60;;
57889;SDS011;43707;50.184;18.966;2023-09-07T00:55:32;0.90;;;0.60;;
57889;SDS011;43707;50.184;18.966;2023-09-07T00:57:59;0.50;;;0.50;;
57889;SDS011;43707;50.184;18.966;2023-09-07T01:00:25;0.50;;;0.50;;
57889;SDS011;43707;50.184;18.966;2023-09-07T01:02:51;0.40;;;0.40;;
57889;SDS011;43707;50.184;18.966;2023-09-07T01:05:16;1.80;;;0.40;;
57889;SDS011;43707;50.184;18.966;2023-09-07T01:07:50;1.00;;;0.70;;
57889;SDS011;43707;50.184;18.966;2023-09-07T01:10:19;0.50;;;0.50;;
57889;SDS011;43707;50.184;18.966;2023-09-07T01:12:46;0.50;;;0.50;;
57889;SDS011;43707;50.184;18.966;2023-09-07T01:15:12;0.90;;;0.50;;
57889;SDS011;43707;50.184;18.966;2023-09-07T01:17:37;0.50;;;0.40;;
57889;SDS011;43707;50.184;18.966;2023-09-07T01:20:04;0.70;;;0.40;;
57889;SDS011;43707;50.184;18.966;2023-09-07T01:25:02;1.50;;;0.50;;
57889;SDS011;43707;50.184;18.966;2023-09-07T01:27:28;0.70;;;0.50;;
57889;SDS011;43707;50.184;18.966;2023-09-07T01:29:54;3.70;;;0.50;;
57889;SDS011;43707;50.184;18.966;2023-09-07T01:32:19;0.60;;;0.50;;
57889;SDS011;43707;50.184;18.966;2023-09-07T01:34:45;0.60;;;0.50;;
57889;SDS011;43707;50.184;18.966;2023-09-07T01:37:10;0.40;;;0.40;;
57889;SDS011;43707;50.184;18.966;2023-09-07T01:39:36;1.30;;;0.60;;
57889;SDS011;43707;50.184;18.966;2023-09-07T01:42:02;0.50;;;0.40;;
57889;SDS011;43707;50.184;18.966;2023-09-07T01:44:27;0.80;;;0.40;;
57889;SDS011;43707;50.184;18.966;2023-09-07T01:46:54;0.50;;;0.40;;
57889;SDS011;43707;50.184;18.966;2023-09-07T01:49:20;1.90;;;0.50;;
57889;SDS011;43707;50.184;18.966;2023-09-07T01:51:45;0.80;;;0.50;;
57889;SDS011;43707;50.184;18.966;2023-09-07T01:54:11;0.90;;;0.40;;
57889;SDS011;43707;50.184;18.966;2023-09-07T01:56:37;0.40;;;0.40;;
57889;SDS011;43707;50.184;18.966;2023-09-07T01:59:06;0.60;;;0.50;;
57889;SDS011;43707;50.184;18.966;2023-09-07T02:01:31;0.80;;;0.60;;
57889;SDS011;43707;50.184;18.966;2023-09-07T02:04:01;0.50;;;0.40;;
57889;SDS011;43707;50.184;18.966;2023-09-07T02:06:27;0.50;;;0.50;;
57889;SDS011;43707;50.184;18.966;2023-09-07T02:08:52;3.80;;;1.30;;
57889;SDS011;43707;50.184;18.966;2023-09-07T02:11:17;1.50;;;1.10;;
57889;SDS011;43707;50.184;18.966;2023-09-07T02:13:43;6.50;;;2.10;;
57889;SDS011;43707;50.184;18.966;2023-09-07T02:16:10;5.90;;;1.80;;
57889;SDS011;43707;50.184;18.966;2023-09-07T02:18:36;2.50;;;1.70;;
57889;SDS011;43707;50.184;18.966;2023-09-07T02:21:12;2.40;;;2.00;;
57889;SDS011;43707;50.184;18.966;2023-09-07T02:23:38;2.40;;;2.00;;
57889;SDS011;43707;50.184;18.966;2023-09-07T02:26:03;2.70;;;2.20;;
57889;SDS011;43707;50.184;18.966;2023-09-07T02:28:29;2.90;;;2.00;;
57889;SDS011;43707;50.184;18.966;2023-09-07T02:31:01;3.30;;;2.30;;
57889;SDS011;43707;50.184;18.966;2023-09-07T02:33:28;2.30;;;2.10;;
57889;SDS011;43707;50.184;18.966;2023-09-07T02:35:53;2.10;;;1.90;;
57889;SDS011;43707;50.184;18.966;2023-09-07T02:38:18;2.50;;;2.20;;
57889;SDS011;43707;50.184;18.966;2023-09-07T02:40:44;3.10;;;2.40;;
57889;SDS011;43707;50.184;18.966;2023-09-07T02:43:10;4.10;;;2.20;;
57889;SDS011;43707;50.184;18.966;2023-09-07T02:45:36;3.60;;;2.20;;
57889;SDS011;43707;50.184;18.966;2023-09-07T02:48:01;3.50;;;2.60;;
57889;SDS011;43707;50.184;18.966;2023-09-07T02:50:29;2.90;;;2.30;;
57889;SDS011;43707;50.184;18.966;2023-09-07T02:52:56;4.00;;;2.50;;
57889;SDS011;43707;50.184;18.966;2023-09-07T02:55:22;3.30;;;2.60;;
57889;SDS011;43707;50.184;18.966;2023-09-07T02:57:48;5.20;;;2.80;;
57889;SDS011;43707;50.184;18.966;2023-09-07T03:00:13;4.00;;;2.60;;
57889;SDS011;43707;50.184;18.966;2023-09-07T03:02:39;2.70;;;2.20;;
57889;SDS011;43707;50.184;18.966;2023-09-07T03:05:04;4.10;;;2.70;;
57889;SDS011;43707;50.184;18.966;2023-09-07T03:07:32;3.10;;;2.40;;
57889;SDS011;43707;50.184;18.966;2023-09-07T03:09:58;2.80;;;2.50;;
57889;SDS011;43707;50.184;18.966;2023-09-07T03:12:23;5.10;;;2.90;;
57889;SDS011;43707;50.184;18.966;2023-09-07T03:14:49;5.00;;;2.40;;
57889;SDS011;43707;50.184;18.966;2023-09-07T03:17:16;4.40;;;2.70;;
57889;SDS011;43707;50.184;18.966;2023-09-07T03:19:42;3.60;;;2.70;;
57889;SDS011;43707;50.184;18.966;2023-09-07T03:22:07;4.50;;;2.80;;
57889;SDS011;43707;50.184;18.966;2023-09-07T03:24:33;3.10;;;2.50;;
57889;SDS011;43707;50.184;18.966;2023-09-07T03:26:59;4.60;;;2.20;;
57889;SDS011;43707;50.184;18.966;2023-09-07T03:29:25;2.30;;;2.10;;
57889;SDS011;43707;50.184;18.966;2023-09-07T03:31:50;5.20;;;2.50;;
57889;SDS011;43707;50.184;18.966;2023-09-07T03:34:15;2.40;;;2.20;;
57889;SDS011;43707;50.184;18.966;2023-09-07T03:36:41;2.90;;;2.20;;
57889;SDS011;43707;50.184;18.966;2023-09-07T03:39:06;3.80;;;2.20;;
57889;SDS011;43707;50.184;18.966;2023-09-07T03:41:33;2.70;;;2.40;;
57889;SDS011;43707;50.184;18.966;2023-09-07T03:43:59;10.30;;;2.80;;
57889;SDS011;43707;50.184;18.966;2023-09-07T03:46:26;3.50;;;2.60;;
57889;SDS011;43707;50.184;18.966;2023-09-07T03:48:51;3.20;;;2.20;;
57889;SDS011;43707;50.184;18.966;2023-09-07T03:51:17;3.10;;;2.30;;
57889;SDS011;43707;50.184;18.966;2023-09-07T03:53:42;5.10;;;2.60;;
57889;SDS011;43707;50.184;18.966;2023-09-07T03:56:08;4.00;;;2.70;;
57889;SDS011;43707;50.184;18.966;2023-09-07T03:58:33;5.50;;;3.20;;
57889;SDS011;43707;50.184;18.966;2023-09-07T04:00:59;2.70;;;2.20;;
57889;SDS011;43707;50.184;18.966;2023-09-07T04:03:25;3.80;;;2.60;;
57889;SDS011;43707;50.184;18.966;2023-09-07T04:05:50;3.60;;;2.50;;
57889;SDS011;43707;50.184;18.966;2023-09-07T04:08:16;2.10;;;1.90;;
57889;SDS011;43707;50.184;18.966;2023-09-07T04:10:41;2.90;;;2.40;;
57889;SDS011;43707;50.184;18.966;2023-09-07T04:13:07;3.20;;;2.50;;
57889;SDS011;43707;50.184;18.966;2023-09-07T04:15:33;4.40;;;2.30;;
57889;SDS011;43707;50.184;18.966;2023-09-07T04:18:01;2.40;;;2.10;;
57889;SDS011;43707;50.184;18.966;2023-09-07T04:20:26;3.50;;;2.20;;
57889;SDS011;43707;50.184;18.966;2023-09-07T04:22:53;3.20;;;2.50;;
57889;SDS011;43707;50.184;18.966;2023-09-07T04:25:19;3.20;;;2.60;;
57889;SDS011;43707;50.184;18.966;2023-09-07T04:27:45;4.00;;;2.80;;
57889;SDS011;43707;50.184;18.966;2023-09-07T04:30:10;5.10;;;2.60;;
57889;SDS011;43707;50.184;18.966;2023-09-07T04:32:36;2.40;;;1.90;;
57889;SDS011;43707;50.184;18.966;2023-09-07T04:35:02;3.20;;;2.40;;
57889;SDS011;43707;50.184;18.966;2023-09-07T04:37:27;2.90;;;1.80;;
57889;SDS011;43707;50.184;18.966;2023-09-07T04:39:53;3.80;;;2.80;;
57889;SDS011;43707;50.184;18.966;2023-09-07T04:42:19;3.20;;;2.90;;
57889;SDS011;43707;50.184;18.966;2023-09-07T04:44:45;3.10;;;2.30;;
57889;SDS011;43707;50.184;18.966;2023-09-07T04:47:12;3.10;;;2.50;;
57889;SDS011;43707;50.184;18.966;2023-09-07T04:49:37;2.80;;;2.60;;
57889;SDS011;43707;50.184;18.966;2023-09-07T04:52:03;2.90;;;2.40;;
57889;SDS011;43707;50.184;18.966;2023-09-07T04:54:28;3.90;;;2.50;;
57889;SDS011;43707;50.184;18.966;2023-09-07T04:56:53;5.10;;;3.10;;
57889;SDS011;43707;50.184;18.966;2023-09-07T04:59:19;3.40;;;2.20;;
57889;SDS011;43707;50.184;18.966;2023-09-07T05:01:44;4.80;;;3.70;;
57889;SDS011;43707;50.184;18.966;2023-09-07T05:04:10;5.20;;;3.00;;
57889;SDS011;43707;50.184;18.966;2023-09-07T05:06:36;3.90;;;3.00;;
57889;SDS011;43707;50.184;18.966;2023-09-07T05:09:03;8.00;;;3.00;;
57889;SDS011;43707;50.184;18.966;2023-09-07T05:11:29;5.00;;;2.80;;
57889;SDS011;43707;50.184;18.966;2023-09-07T05:13:54;3.10;;;2.50;;
57889;SDS011;43707;50.184;18.966;2023-09-07T05:16:20;4.10;;;3.00;;
57889;SDS011;43707;50.184;18.966;2023-09-07T05:18:45;4.00;;;3.30;;
57889;SDS011;43707;50.184;18.966;2023-09-07T05:21:14;3.00;;;2.70;;
57889;SDS011;43707;50.184;18.966;2023-09-07T05:23:40;4.70;;;3.20;;
57889;SDS011;43707;50.184;18.966;2023-09-07T05:26:06;3.00;;;2.60;;
57889;SDS011;43707;50.184;18.966;2023-09-07T05:28:31;3.50;;;2.80;;
57889;SDS011;43707;50.184;18.966;2023-09-07T05:30:57;6.10;;;3.10;;
57889;SDS011;43707;50.184;18.966;2023-09-07T05:33:22;5.40;;;3.10;;
57889;SDS011;43707;50.184;18.966;2023-09-07T05:35:48;3.60;;;2.90;;
57889;SDS011;43707;50.184;18.966;2023-09-07T05:38:13;3.80;;;2.70;;
57889;SDS011;43707;50.184;18.966;2023-09-07T05:40:39;6.10;;;2.90;;
57889;SDS011;43707;50.184;18.966;2023-09-07T05:43:07;2.90;;;2.50;;
57889;SDS011;43707;50.184;18.966;2023-09-07T05:45:39;3.50;;;2.60;;
57889;SDS011;43707;50.184;18.966;2023-09-07T05:50:32;3.60;;;2.50;;
57889;SDS011;43707;50.184;18.966;2023-09-07T05:52:59;9.10;;;2.50;;
57889;SDS011;43707;50.184;18.966;2023-09-07T05:55:24;4.40;;;2.50;;
57889;SDS011;43707;50.184;18.966;2023-09-07T05:57:50;2.60;;;2.10;;
57889;SDS011;43707;50.184;18.966;2023-09-07T06:00:15;3.60;;;2.70;;
57889;SDS011;43707;50.184;18.966;2023-09-07T06:02:42;3.00;;;2.30;;
57889;SDS011;43707;50.184;18.966;2023-09-07T06:05:09;2.00;;;1.50;;
57889;SDS011;43707;50.184;18.966;2023-09-07T06:07:35;2.50;;;2.00;;
57889;SDS011;43707;50.184;18.966;2023-09-07T06:10:01;2.70;;;1.80;;
57889;SDS011;43707;50.184;18.966;2023-09-07T06:12:26;2.00;;;1.50;;
57889;SDS011;43707;50.184;18.966;2023-09-07T06:14:52;5.50;;;4.50;;
57889;SDS011;43707;50.184;18.966;2023-09-07T06:17:17;2.30;;;2.10;;
57889;SDS011;43707;50.184;18.966;2023-09-07T06:19:44;4.20;;;3.00;;
57889;SDS011;43707;50.184;18.966;2023-09-07T06:22:09;4.80;;;2.30;;
57889;SDS011;43707;50.184;18.966;2023-09-07T06:24:35;3.00;;;2.30;;
57889;SDS011;43707;50.184;18.966;2023-09-07T06:27:00;3.50;;;2.60;;
57889;SDS011;43707;50.184;18.966;2023-09-07T06:29:26;6.30;;;1.70;;
57889;SDS011;43707;50.184;18.966;2023-09-07T06:31:51;6.70;;;1.90;;
57889;SDS011;43707;50.184;18.966;2023-09-07T06:34:17;2.30;;;1.60;;
57889;SDS011;43707;50.184;18.966;2023-09-07T06:36:42;3.90;;;2.30;;
57889;SDS011;43707;50.184;18.966;2023-09-07T06:39:08;6.00;;;2.70;;
57889;SDS011;43707;50.184;18.966;2023-09-07T06:41:34;3.90;;;2.70;;
57889;SDS011;43707;50.184;18.966;2023-09-07T06:43:59;3.40;;;2.00;;
57889;SDS011;43707;50.184;18.966;2023-09-07T06:46:25;1.70;;;1.40;;
57889;SDS011;43707;50.184;18.966;2023-09-07T06:48:50;3.40;;;2.40;;
57889;SDS011;43707;50.184;18.966;2023-09-07T06:51:16;5.00;;;2.40;;
57889;SDS011;43707;50.184;18.966;2023-09-07T06:53:41;2.60;;;2.00;;
57889;SDS011;43707;50.184;18.966;2023-09-07T06:56:06;2.80;;;1.90;;
57889;SDS011;43707;50.184;18.966;2023-09-07T06:58:32;6.20;;;3.40;;
57889;SDS011;43707;50.184;18.966;2023-09-07T07:00:59;6.90;;;3.20;;
57889;SDS011;43707;50.184;18.966;2023-09-07T07:03:29;7.90;;;3.60;;
57889;SDS011;43707;50.184;18.966;2023-09-07T07:05:55;4.60;;;3.00;;
57889;SDS011;43707;50.184;18.966;2023-09-07T07:08:20;5.20;;;2.10;;
57889;SDS011;43707;50.184;18.966;2023-09-07T07:10:46;2.40;;;1.40;;
57889;SDS011;43707;50.184;18.966;2023-09-07T07:13:12;2.40;;;1.20;;
57889;SDS011;43707;50.184;18.966;2023-09-07T07:15:37;1.50;;;1.00;;
57889;SDS011;43707;50.184;18.966;2023-09-07T07:18:03;1.10;;;0.90;;
57889;SDS011;43707;50.184;18.966;2023-09-07T07:20:39;1.20;;;0.90;;
57889;SDS011;43707;50.184;18.966;2023-09-07T07:23:06;3.30;;;1.10;;
57889;SDS011;43707;50.184;18.966;2023-09-07T07:25:32;2.00;;;1.10;;
57889;SDS011;43707;50.184;18.966;2023-09-07T07:28:02;1.30;;;0.80;;
57889;SDS011;43707;50.184;18.966;2023-09-07T07:30:34;0.70;;;0.70;;
57889;SDS011;43707;50.184;18.966;2023-09-07T07:33:02;0.80;;;0.70;;
57889;SDS011;43707;50.184;18.966;2023-09-07T07:35:31;1.40;;;0.60;;
57889;SDS011;43707;50.184;18.966;2023-09-07T07:37:57;0.80;;;0.60;;
57889;SDS011;43707;50.184;18.966;2023-09-07T07:40:23;0.90;;;0.70;;
57889;SDS011;43707;50.184;18.966;2023-09-07T07:42:50;0.90;;;0.60;;
57889;SDS011;43707;50.184;18.966;2023-09-07T07:45:17;0.70;;;0.60;;
57889;SDS011;43707;50.184;18.966;2023-09-07T07:47:45;0.90;;;0.80;;
57889;SDS011;43707;50.184;18.966;2023-09-07T07:50:11;3.50;;;0.70;;
57889;SDS011;43707;50.184;18.966;2023-09-07T07:52:36;1.90;;;0.60;;
57889;SDS011;43707;50.184;18.966;2023-09-07T07:55:02;0.50;;;0.40;;
57889;SDS011;43707;50.184;18.966;2023-09-07T07:57:27;0.60;;;0.50;;
57889;SDS011;43707;50.184;18.966;2023-09-07T07:59:53;0.80;;;0.70;;
57889;SDS011;43707;50.184;18.966;2023-09-07T08:02:20;1.00;;;0.60;;
57889;SDS011;43707;50.184;18.966;2023-09-07T08:04:45;0.60;;;0.50;;
57889;SDS011;43707;50.184;18.966;2023-09-07T08:07:11;0.60;;;0.40;;
57889;SDS011;43707;50.184;18.966;2023-09-07T08:09:36;3.30;;;0.50;;
57889;SDS011;43707;50.184;18.966;2023-09-07T08:12:03;0.70;;;0.60;;
57889;SDS011;43707;50.184;18.966;2023-09-07T08:14:30;0.60;;;0.50;;
57889;SDS011;43707;50.184;18.966;2023-09-07T08:16:57;0.60;;;0.50;;
57889;SDS011;43707;50.184;18.966;2023-09-07T08:19:23;0.40;;;0.40;;
57889;SDS011;43707;50.184;18.966;2023-09-07T08:21:49;0.60;;;0.40;;
57889;SDS011;43707;50.184;18.966;2023-09-07T08:24:15;0.60;;;0.40;;
57889;SDS011;43707;50.184;18.966;2023-09-07T08:26:40;1.20;;;0.50;;
57889;SDS011;43707;50.184;18.966;2023-09-07T08:29:07;0.50;;;0.40;;
57889;SDS011;43707;50.184;18.966;2023-09-07T08:31:34;0.40;;;0.30;;
57889;SDS011;43707;50.184;18.966;2023-09-07T08:34:00;0.30;;;0.30;;
57889;SDS011;43707;50.184;18.966;2023-09-07T08:36:28;0.30;;;0.30;;
57889;SDS011;43707;50.184;18.966;2023-09-07T08:38:57;0.50;;;0.50;;
57889;SDS011;43707;50.184;18.966;2023-09-07T08:41:24;0.30;;;0.30;;
57889;SDS011;43707;50.184;18.966;2023-09-07T08:43:52;0.70;;;0.40;;
57889;SDS011;43707;50.184;18.966;2023-09-07T08:46:19;0.60;;;0.50;;
57889;SDS011;43707;50.184;18.966;2023-09-07T08:48:48;0.30;;;0.30;;
57889;SDS011;43707;50.184;18.966;2023-09-07T08:51:15;0.40;;;0.40;;
57889;SDS011;43707;50.184;18.966;2023-09-07T08:53:41;0.60;;;0.50;;
57889;SDS011;43707;50.184;18.966;2023-09-07T08:56:11;0.30;;;0.30;;
57889;SDS011;43707;50.184;18.966;2023-09-07T08:58:37;0.30;;;0.30;;
57889;SDS011;43707;50.184;18.966;2023-09-07T09:01:02;0.30;;;0.30;;
57889;SDS011;43707;50.184;18.966;2023-09-07T09:03:28;0.30;;;0.30;;
57889;SDS011;43707;50.184;18.966;2023-09-07T09:05:55;0.40;;;0.40;;
57889;SDS011;43707;50.184;18.966;2023-09-07T09:08:20;0.40;;;0.40;;
57889;SDS011;43707;50.184;18.966;2023-09-07T09:10:49;2.40;;;1.80;;
57889;SDS011;43707;50.184;18.966;2023-09-07T09:13:27;3.30;;;1.70;;
57889;SDS011;43707;50.184;18.966;2023-09-07T09:15:54;2.00;;;1.70;;
57889;SDS011;43707;50.184;18.966;2023-09-07T09:18:20;1.60;;;1.30;;
57889;SDS011;43707;50.184;18.966;2023-09-07T09:20:45;1.90;;;1.50;;
57889;SDS011;43707;50.184;18.966;2023-09-07T09:23:11;2.50;;;1.30;;
57889;SDS011;43707;50.184;18.966;2023-09-07T09:25:40;8.40;;;1.20;;
57889;SDS011;43707;50.184;18.966;2023-09-07T09:28:06;1.10;;;1.00;;
57889;SDS011;43707;50.184;18.966;2023-09-07T09:30:31;1.00;;;0.90;;
57889;SDS011;43707;50.184;18.966;2023-09-07T09:32:56;1.10;;;0.80;;
57889;SDS011;43707;50.184;18.966;2023-09-07T09:35:23;0.50;;;0.50;;
57889;SDS011;43707;50.184;18.966;2023-09-07T09:37:49;0.60;;;0.60;;
57889;SDS011;43707;50.184;18.966;2023-09-07T09:40:15;0.40;;;0.40;;
57889;SDS011;43707;50.184;18.966;2023-09-07T09:42:44;0.90;;;0.60;;
57889;SDS011;43707;50.184;18.966;2023-09-07T09:45:10;0.70;;;0.50;;
57889;SDS011;43707;50.184;18.966;2023-09-07T09:47:40;0.40;;;0.40;;
57889;SDS011;43707;50.184;18.966;2023-09-07T09:50:07;0.50;;;0.50;;
57889;SDS011;43707;50.184;18.966;2023-09-07T09:52:34;0.40;;;0.40;;
57889;SDS011;43707;50.184;18.966;2023-09-07T09:55:01;0.40;;;0.40;;
57889;SDS011;43707;50.184;18.966;2023-09-07T09:57:31;0.40;;;0.40;;
57889;SDS011;43707;50.184;18.966;2023-09-07T09:59:58;0.70;;;0.70;;
57889;SDS011;43707;50.184;18.966;2023-09-07T10:02:24;0.30;;;0.30;;
57889;SDS011;43707;50.184;18.966;2023-09-07T10:04:50;0.30;;;0.30;;
57889;SDS011;43707;50.184;18.966;2023-09-07T10:07:16;0.50;;;0.40;;
57889;SDS011;43707;50.184;18.966;2023-09-07T10:09:44;0.20;;;0.20;;
57889;SDS011;43707;50.184;18.966;2023-09-07T10:12:12;0.40;;;0.30;;
57889;SDS011;43707;50.184;18.966;2023-09-07T10:14:38;0.20;;;0.20;;
57889;SDS011;43707;50.184;18.966;2023-09-07T10:17:04;0.30;;;0.30;;
57889;SDS011;43707;50.184;18.966;2023-09-07T10:19:30;0.30;;;0.30;;
57889;SDS011;43707;50.184;18.966;2023-09-07T10:21:56;0.70;;;0.40;;
57889;SDS011;43707;50.184;18.966;2023-09-07T10:24:26;0.50;;;0.50;;
57889;SDS011;43707;50.184;18.966;2023-09-07T10:26:56;0.80;;;0.60;;
57889;SDS011;43707;50.184;18.966;2023-09-07T10:29:22;0.60;;;0.60;;
57889;SDS011;43707;50.184;18.966;2023-09-07T10:31:51;0.50;;;0.50;;
57889;SDS011;43707;50.184;18.966;2023-09-07T10:34:17;0.80;;;0.70;;
57889;SDS011;43707;50.184;18.966;2023-09-07T10:36:42;0.80;;;0.60;;
57889;SDS011;43707;50.184;18.966;2023-09-07T10:39:09;0.90;;;0.80;;
57889;SDS011;43707;50.184;18.966;2023-09-07T10:41:43;2.40;;;0.70;;
57889;SDS011;43707;50.184;18.966;2023-09-07T10:44:09;3.70;;;0.60;;
57889;SDS011;43707;50.184;18.966;2023-09-07T10:46:39;1.00;;;0.80;;
57889;SDS011;43707;50.184;18.966;2023-09-07T10:49:06;0.70;;;0.60;;
57889;SDS011;43707;50.184;18.966;2023-09-07T10:51:44;0.40;;;0.40;;
57889;SDS011;43707;50.184;18.966;2023-09-07T10:54:17;0.90;;;0.70;;
57889;SDS011;43707;50.184;18.966;2023-09-07T10:56:44;1.00;;;0.50;;
57889;SDS011;43707;50.184;18.966;2023-09-07T10:59:11;0.50;;;0.50;;
57889;SDS011;43707;50.184;18.966;2023-09-07T11:01:38;0.40;;;0.30;;
57889;SDS011;43707;50.184;18.966;2023-09-07T11:04:03;0.70;;;0.50;;
57889;SDS011;43707;50.184;18.966;2023-09-07T11:06:30;0.30;;;0.30;;
57889;SDS011;43707;50.184;18.966;2023-09-07T11:08:59;0.30;;;0.30;;
57889;SDS011;43707;50.184;18.966;2023-09-07T11:11:25;0.40;;;0.40;;
57889;SDS011;43707;50.184;18.966;2023-09-07T11:13:51;2.70;;;0.60;;
57889;SDS011;43707;50.184;18.966;2023-09-07T11:16:16;0.60;;;0.60;;
57889;SDS011;43707;50.184;18.966;2023-09-07T11:18:42;0.60;;;0.50;;
57889;SDS011;43707;50.184;18.966;2023-09-07T11:21:07;0.40;;;0.40;;
57889;SDS011;43707;50.184;18.966;2023-09-07T11:23:33;0.40;;;0.40;;
57889;SDS011;43707;50.184;18.966;2023-09-07T11:26:05;0.40;;;0.40;;
57889;SDS011;43707;50.184;18.966;2023-09-07T11:28:31;0.50;;;0.40;;
57889;SDS011;43707;50.184;18.966;2023-09-07T11:30:57;0.50;;;0.50;;
57889;SDS011;43707;50.184;18.966;2023-09-07T11:33:23;0.50;;;0.40;;
57889;SDS011;43707;50.184;18.966;2023-09-07T11:35:49;0.40;;;0.40;;
57889;SDS011;43707;50.184;18.966;2023-09-07T11:38:16;0.60;;;0.50;;
57889;SDS011;43707;50.184;18.966;2023-09-07T11:40:42;2.90;;;0.50;;
57889;SDS011;43707;50.184;18.966;2023-09-07T11:43:13;0.30;;;0.30;;
57889;SDS011;43707;50.184;18.966;2023-09-07T11:45:40;0.40;;;0.40;;
57889;SDS011;43707;50.184;18.966;2023-09-07T11:48:07;0.50;;;0.40;;
57889;SDS011;43707;50.184;18.966;2023-09-07T11:50:34;0.40;;;0.30;;
57889;SDS011;43707;50.184;18.966;2023-09-07T11:53:00;0.60;;;0.40;;
57889;SDS011;43707;50.184;18.966;2023-09-07T11:55:26;0.20;;;0.20;;
57889;SDS011;43707;50.184;18.966;2023-09-07T11:57:52;0.30;;;0.30;;
57889;SDS011;43707;50.184;18.966;2023-09-07T12:00:17;0.70;;;0.30;;
57889;SDS011;43707;50.184;18.966;2023-09-07T12:02:43;0.60;;;0.60;;
57889;SDS011;43707;50.184;18.966;2023-09-07T12:05:08;0.90;;;0.70;;
57889;SDS011;43707;50.184;18.966;2023-09-07T12:07:35;0.60;;;0.60;;
57889;SDS011;43707;50.184;18.966;2023-09-07T12:10:02;1.10;;;0.60;;
57889;SDS011;43707;50.184;18.966;2023-09-07T12:12:28;1.30;;;0.60;;
57889;SDS011;43707;50.184;18.966;2023-09-07T12:14:54;2.00;;;0.70;;
57889;SDS011;43707;50.184;18.966;2023-09-07T12:17:21;0.70;;;0.60;;
57889;SDS011;43707;50.184;18.966;2023-09-07T12:19:49;2.80;;;1.40;;
57889;SDS011;43707;50.184;18.966;2023-09-07T12:22:15;1.90;;;1.70;;
57889;SDS011;43707;50.184;18.966;2023-09-07T12:24:41;5.40;;;1.80;;
57889;SDS011;43707;50.184;18.966;2023-09-07T12:27:06;5.90;;;2.80;;
57889;SDS011;43707;50.184;18.966;2023-09-07T12:29:31;5.10;;;2.70;;
57889;SDS011;43707;50.184;18.966;2023-09-07T12:31:57;3.50;;;3.10;;
57889;SDS011;43707;50.184;18.966;2023-09-07T12:34:29;4.20;;;2.90;;
57889;SDS011;43707;50.184;18.966;2023-09-07T12:36:54;4.30;;;2.20;;
57889;SDS011;43707;50.184;18.966;2023-09-07T12:39:20;2.80;;;2.50;;
57889;SDS011;43707;50.184;18.966;2023-09-07T12:41:45;2.20;;;2.00;;
57889;SDS011;43707;50.184;18.966;2023-09-07T12:44:10;3.50;;;2.70;;
57889;SDS011;43707;50.184;18.966;2023-09-07T12:46:36;9.20;;;2.60;;
57889;SDS011;43707;50.184;18.966;2023-09-07T12:49:02;2.80;;;2.60;;
57889;SDS011;43707;50.184;18.966;2023-09-07T12:51:29;2.10;;;1.90;;
57889;SDS011;43707;50.184;18.966;2023-09-07T12:53:57;3.50;;;2.00;;
57889;SDS011;43707;50.184;18.966;2023-09-07T12:56:22;4.10;;;2.00;;
57889;SDS011;43707;50.184;18.966;2023-09-07T12:58:47;3.40;;;2.10;;
57889;SDS011;43707;50.184;18.966;2023-09-07T13:01:14;3.80;;;2.40;;
57889;SDS011;43707;50.184;18.966;2023-09-07T13:03:41;2.30;;;1.90;;
57889;SDS011;43707;50.184;18.966;2023-09-07T13:06:08;2.00;;;1.60;;
57889;SDS011;43707;50.184;18.966;2023-09-07T13:08:34;2.30;;;1.70;;
57889;SDS011;43707;50.184;18.966;2023-09-07T13:10:59;2.20;;;1.20;;
57889;SDS011;43707;50.184;18.966;2023-09-07T13:13:25;1.00;;;0.90;;
57889;SDS011;43707;50.184;18.966;2023-09-07T13:15:58;3.90;;;0.90;;
57889;SDS011;43707;50.184;18.966;2023-09-07T13:18:23;0.80;;;0.80;;
57889;SDS011;43707;50.184;18.966;2023-09-07T13:20:50;0.80;;;0.80;;
57889;SDS011;43707;50.184;18.966;2023-09-07T13:23:18;0.80;;;0.70;;
57889;SDS011;43707;50.184;18.966;2023-09-07T13:25:44;0.60;;;0.60;;
57889;SDS011;43707;50.184;18.966;2023-09-07T13:28:09;0.60;;;0.50;;
57889;SDS011;43707;50.184;18.966;2023-09-07T13:30:35;0.50;;;0.40;;
57889;SDS011;43707;50.184;18.966;2023-09-07T13:33:00;3.10;;;0.30;;
57889;SDS011;43707;50.184;18.966;2023-09-07T13:35:26;0.70;;;0.40;;
57889;SDS011;43707;50.184;18.966;2023-09-07T13:37:51;0.40;;;0.30;;
57889;SDS011;43707;50.184;18.966;2023-09-07T13:40:17;0.50;;;0.50;;
57889;SDS011;43707;50.184;18.966;2023-09-07T13:42:44;0.30;;;0.30;;
57889;SDS011;43707;50.184;18.966;2023-09-07T13:45:10;0.40;;;0.40;;
57889;SDS011;43707;50.184;18.966;2023-09-07T13:47:36;0.30;;;0.30;;
57889;SDS011;43707;50.184;18.966;2023-09-07T13:50:02;0.30;;;0.30;;
57889;SDS011;43707;50.184;18.966;2023-09-07T13:52:28;0.30;;;0.30;;
57889;SDS011;43707;50.184;18.966;2023-09-07T13:54:53;0.20;;;0.20;;
57889;SDS011;43707;50.184;18.966;2023-09-07T13:57:18;0.30;;;0.30;;
57889;SDS011;43707;50.184;18.966;2023-09-07T13:59:45;0.40;;;0.40;;
57889;SDS011;43707;50.184;18.966;2023-09-07T14:02:10;0.20;;;0.20;;
57889;SDS011;43707;50.184;18.966;2023-09-07T14:04:35;0.20;;;0.20;;
57889;SDS011;43707;50.184;18.966;2023-09-07T14:07:01;0.30;;;0.30;;
57889;SDS011;43707;50.184;18.966;2023-09-07T14:09:26;0.30;;;0.30;;
57889;SDS011;43707;50.184;18.966;2023-09-07T14:11:52;0.40;;;0.40;;
57889;SDS011;43707;50.184;18.966;2023-09-07T14:14:17;0.40;;;0.30;;
57889;SDS011;43707;50.184;18.966;2023-09-07T14:16:43;0.30;;;0.20;;
57889;SDS011;43707;50.184;18.966;2023-09-07T14:19:08;0.20;;;0.20;;
57889;SDS011;43707;50.184;18.966;2023-09-07T14:21:34;0.40;;;0.30;;
57889;SDS011;43707;50.184;18.966;2023-09-07T14:23:59;0.30;;;0.30;;
57889;SDS011;43707;50.184;18.966;2023-09-07T14:26:26;1.50;;;0.40;;
57889;SDS011;43707;50.184;18.966;2023-09-07T14:28:52;0.60;;;0.40;;
57889;SDS011;43707;50.184;18.966;2023-09-07T14:31:17;0.40;;;0.40;;
57889;SDS011;43707;50.184;18.966;2023-09-07T14:33:43;0.40;;;0.40;;